Time;durP1;ratioP1;P1;durP2;ratioP2;P2;SDS_P1;SDS_P2;PMS_P1;PMS_P2;Temp;Humidity;BMP_temperature;BMP_pressure;BME280_temperature;BME280_humidity;BME280_pressure;Samples;Min_cycle;Max_cycle;Signal;HPM_P1;HPM_P2
2023/10/27 00:01:38;;;;;;;18.40;7.85;;;11.00;99.90;;;;;;5078915;28;20036;-88
2023/10/27 00:04:04;;;;;;;21.58;8.48;;;11.00;99.90;;;;;;5078969;28;20483;-88
2023/10/27 00:06:32;;;;;;;19.60;8.93;;;10.90;99.90;;;;;;5078382;28;20476;-88
2023/10/27 00:08:58;;;;;;;17.58;9.15;;;10.90;99.90;;;;;;5095459;28;20044;-88
2023/10/27 00:11:25;;;;;;;19.08;8.18;;;10.90;99.90;;;;;;5095058;28;20031;-88
2023/10/27 00:13:51;;;;;;;25.98;23.27;;;10.90;99.90;;;;;;5078048;28;20039;-88
2023/10/27 00:16:16;;;;;;;17.67;8.93;;;11.00;99.90;;;;;;5095070;28;20040;-88
2023/10/27 00:18:42;;;;;;;18.80;9.48;;;11.00;99.90;;;;;;5078136;28;20078;-88
2023/10/27 00:21:08;;;;;;;17.60;8.73;;;11.00;99.90;;;;;;5099867;28;20039;-88
2023/10/27 00:23:33;;;;;;;17.80;8.52;;;10.90;99.90;;;;;;5078854;28;20529;-88
2023/10/27 00:26:00;;;;;;;17.35;8.65;;;10.90;99.90;;;;;;5078275;28;20043;-88
2023/10/27 00:28:25;;;;;;;19.05;9.02;;;10.90;99.90;;;;;;5095032;28;20040;-88
2023/10/27 00:30:51;;;;;;;20.15;10.52;;;10.90;99.90;;;;;;5077942;28;20044;-88
2023/10/27 00:33:16;;;;;;;19.63;9.77;;;10.90;99.90;;;;;;5094200;28;20054;-88
2023/10/27 00:35:42;;;;;;;18.67;9.05;;;10.90;99.90;;;;;;5077477;28;20411;-88
2023/10/27 00:38:07;;;;;;;18.48;8.95;;;10.90;99.90;;;;;;5094449;28;20039;-88
2023/10/27 00:40:33;;;;;;;17.95;8.60;;;10.90;99.90;;;;;;5076581;28;20043;-88
2023/10/27 00:43:02;;;;;;;20.08;9.82;;;10.90;99.90;;;;;;5094541;28;20031;-88
2023/10/27 00:45:28;;;;;;;16.92;8.70;;;10.80;99.90;;;;;;5078043;28;20036;-88
2023/10/27 00:47:54;;;;;;;19.88;10.43;;;10.90;99.90;;;;;;5077877;28;20038;-88
2023/10/27 00:50:21;;;;;;;19.23;8.48;;;10.80;99.90;;;;;;5094434;28;20027;-88
2023/10/27 00:52:48;;;;;;;19.02;10.32;;;10.90;99.90;;;;;;5094604;28;20043;-88
2023/10/27 00:55:14;;;;;;;18.80;8.52;;;10.80;99.90;;;;;;5094639;28;20491;-88
2023/10/27 00:57:41;;;;;;;17.55;9.25;;;10.80;99.90;;;;;;5094626;28;20035;-88
2023/10/27 01:00:08;;;;;;;16.75;8.05;;;10.80;99.90;;;;;;5093961;28;20083;-88
2023/10/27 01:02:33;;;;;;;19.25;8.40;;;10.80;99.90;;;;;;5077717;28;20043;-88
2023/10/27 01:04:59;;;;;;;14.13;7.43;;;10.80;99.90;;;;;;5077704;28;20039;-88
2023/10/27 01:07:25;;;;;;;24.90;21.63;;;10.80;99.90;;;;;;5094730;28;20509;-88
2023/10/27 01:09:51;;;;;;;19.63;9.55;;;10.90;99.90;;;;;;5094478;28;20050;-88
2023/10/27 01:12:17;;;;;;;17.08;8.35;;;10.90;99.90;;;;;;5077193;28;20035;-88
2023/10/27 01:14:43;;;;;;;18.58;9.00;;;10.80;99.90;;;;;;5077710;28;20039;-88
2023/10/27 01:17:10;;;;;;;18.98;9.27;;;10.80;99.90;;;;;;5094200;28;20043;-87
2023/10/27 01:19:36;;;;;;;21.23;9.38;;;10.80;99.90;;;;;;5094028;28;20052;-87
2023/10/27 01:22:03;;;;;;;18.45;8.88;;;10.80;99.90;;;;;;5094393;28;20047;-88
2023/10/27 01:24:28;;;;;;;18.90;8.50;;;10.80;99.90;;;;;;5077589;28;20035;-87
2023/10/27 01:26:55;;;;;;;20.80;10.30;;;10.70;99.90;;;;;;5078768;28;20067;-88
2023/10/27 01:29:27;;;;;;;18.77;9.20;;;10.80;99.90;;;;;;5094734;28;20097;-88
2023/10/27 01:31:53;;;;;;;20.73;8.82;;;10.70;99.90;;;;;;5079329;28;20093;-88
2023/10/27 01:34:19;;;;;;;18.92;8.85;;;10.70;99.90;;;;;;5079977;28;20043;-88
2023/10/27 01:36:44;;;;;;;16.83;8.38;;;10.70;99.90;;;;;;5077198;28;20131;-88
2023/10/27 01:39:11;;;;;;;17.58;8.55;;;10.70;99.90;;;;;;5093758;28;20028;-88
2023/10/27 01:41:37;;;;;;;19.10;9.15;;;10.70;99.90;;;;;;5093750;28;20049;-88
2023/10/27 01:44:03;;;;;;;16.92;8.65;;;10.70;99.90;;;;;;5093737;28;21104;-88
2023/10/27 01:46:28;;;;;;;17.85;9.20;;;10.70;99.90;;;;;;5094167;28;20099;-89
2023/10/27 01:48:54;;;;;;;21.00;8.15;;;10.70;99.90;;;;;;5076804;28;20118;-89
2023/10/27 01:51:19;;;;;;;21.30;9.52;;;10.70;99.90;;;;;;5092935;28;20517;-88
2023/10/27 01:53:45;;;;;;;20.35;8.10;;;10.70;99.90;;;;;;5076892;28;20032;-88
2023/10/27 01:56:11;;;;;;;18.00;7.82;;;10.70;99.90;;;;;;5077157;28;20067;-88
2023/10/27 01:58:40;;;;;;;28.92;24.33;;;10.70;99.90;;;;;;5076916;28;20122;-88
2023/10/27 02:01:06;;;;;;;19.52;8.65;;;10.80;99.90;;;;;;5076661;28;20051;-88
2023/10/27 02:03:32;;;;;;;20.08;9.98;;;10.80;99.90;;;;;;5093745;28;20043;-88
2023/10/27 02:05:58;;;;;;;20.23;9.13;;;10.80;99.90;;;;;;5077116;28;20410;-88
2023/10/27 02:08:24;;;;;;;20.38;9.75;;;10.80;99.90;;;;;;5093421;28;20036;-88
2023/10/27 02:10:49;;;;;;;18.80;9.07;;;10.70;99.90;;;;;;5093815;28;20040;-88
2023/10/27 02:13:15;;;;;;;22.38;9.52;;;10.70;99.90;;;;;;5093367;28;20040;-88
2023/10/27 02:15:41;;;;;;;27.67;23.10;;;10.70;99.90;;;;;;5093534;28;20662;-88
2023/10/27 02:18:07;;;;;;;21.33;8.73;;;10.80;99.90;;;;;;5081257;28;20590;-88
2023/10/27 02:20:33;;;;;;;18.75;9.60;;;10.80;99.90;;;;;;5093521;28;20082;-88
2023/10/27 02:22:58;;;;;;;20.10;9.65;;;10.70;99.90;;;;;;5076660;28;20088;-88
2023/10/27 02:25:24;;;;;;;16.10;8.25;;;10.70;99.90;;;;;;5093560;28;20391;-88
2023/10/27 02:27:50;;;;;;;20.08;9.30;;;10.70;99.90;;;;;;5093192;28;20429;-88
2023/10/27 02:30:15;;;;;;;22.02;9.77;;;10.70;99.90;;;;;;5093221;28;20039;-88
2023/10/27 02:32:41;;;;;;;19.63;10.07;;;10.70;99.90;;;;;;5076643;28;20048;-88
2023/10/27 02:35:07;;;;;;;21.95;11.15;;;10.70;99.90;;;;;;5076677;28;20122;-88
2023/10/27 02:37:32;;;;;;;18.40;9.25;;;10.70;99.90;;;;;;5076649;28;21299;-88
2023/10/27 02:39:58;;;;;;;18.33;8.77;;;10.70;99.90;;;;;;5092996;28;20514;-87
2023/10/27 02:42:23;;;;;;;19.30;9.68;;;10.70;99.90;;;;;;5093366;28;20040;-88
2023/10/27 02:44:49;;;;;;;29.17;25.00;;;10.70;99.90;;;;;;5076621;28;20046;-88
2023/10/27 02:47:14;;;;;;;21.30;10.43;;;10.70;99.90;;;;;;5093267;28;20406;-89
2023/10/27 02:49:40;;;;;;;19.20;9.20;;;10.70;99.90;;;;;;5076558;28;20084;-88
2023/10/27 02:52:06;;;;;;;16.30;7.65;;;10.70;99.90;;;;;;5093297;28;20498;-89
2023/10/27 02:54:31;;;;;;;28.42;24.88;;;10.70;99.90;;;;;;5076354;28;20027;-88
2023/10/27 02:56:57;;;;;;;20.33;9.00;;;10.80;99.90;;;;;;5093178;28;20506;-88
2023/10/27 02:59:23;;;;;;;19.92;8.60;;;10.80;99.90;;;;;;5093288;28;20394;-88
2023/10/27 03:01:49;;;;;;;21.88;10.32;;;10.70;99.90;;;;;;5094753;28;20031;-88
2023/10/27 03:04:15;;;;;;;25.77;22.70;;;10.70;99.90;;;;;;5083158;28;20398;-88
2023/10/27 03:06:43;;;;;;;16.95;8.15;;;10.80;99.90;;;;;;5096891;28;20490;-88
2023/10/27 03:09:09;;;;;;;19.63;8.02;;;10.80;99.90;;;;;;5096608;28;20050;-88
2023/10/27 03:11:34;;;;;;;20.98;9.95;;;10.80;99.90;;;;;;5079427;28;20110;-88
2023/10/27 03:14:00;;;;;;;19.73;8.52;;;10.70;99.90;;;;;;5096705;28;20093;-88
2023/10/27 03:16:25;;;;;;;15.68;8.30;;;10.70;99.90;;;;;;5086953;28;20036;-88
2023/10/27 03:18:51;;;;;;;18.23;8.77;;;10.70;99.90;;;;;;5104919;28;20418;-87
2023/10/27 03:21:17;;;;;;;18.48;9.13;;;10.80;99.90;;;;;;5096226;28;20043;-88
2023/10/27 03:23:42;;;;;;;17.75;8.88;;;10.80;99.90;;;;;;5096390;28;20042;-87
2023/10/27 03:26:09;;;;;;;18.10;8.82;;;10.70;99.90;;;;;;5079509;28;20043;-87
2023/10/27 03:28:34;;;;;;;19.27;9.88;;;10.70;99.90;;;;;;5096291;28;20103;-87
2023/10/27 03:31:00;;;;;;;18.92;9.02;;;10.70;99.90;;;;;;5079277;28;20119;-87
2023/10/27 03:33:26;;;;;;;20.73;9.18;;;10.70;99.90;;;;;;5079212;28;20028;-87
2023/10/27 03:35:51;;;;;;;21.92;9.18;;;10.70;99.90;;;;;;5096731;28;20398;-87
2023/10/27 03:38:17;;;;;;;21.55;8.73;;;10.70;99.90;;;;;;5079535;28;20051;-87
2023/10/27 03:40:44;;;;;;;17.80;7.85;;;10.70;99.90;;;;;;5078824;28;20108;-87
2023/10/27 03:43:10;;;;;;;20.10;8.95;;;10.70;99.90;;;;;;5079544;28;20036;-87
2023/10/27 03:45:36;;;;;;;25.10;21.77;;;10.70;99.90;;;;;;5096244;28;20506;-88
2023/10/27 03:48:02;;;;;;;19.98;8.05;;;10.80;99.90;;;;;;5084453;28;20046;-88
2023/10/27 03:50:28;;;;;;;17.30;7.93;;;10.80;99.90;;;;;;5096201;28;20035;-88
2023/10/27 03:52:54;;;;;;;19.35;9.27;;;10.70;99.90;;;;;;5097288;28;20043;-88
2023/10/27 03:55:19;;;;;;;17.13;8.10;;;10.70;99.90;;;;;;5095959;28;20071;-88
2023/10/27 03:57:45;;;;;;;18.60;8.75;;;10.70;99.90;;;;;;5096063;28;20051;-88
2023/10/27 04:00:11;;;;;;;17.98;8.68;;;10.70;99.90;;;;;;5095767;28;20044;-88
2023/10/27 04:02:37;;;;;;;20.73;8.05;;;10.70;99.90;;;;;;5095726;28;20036;-89
2023/10/27 04:05:05;;;;;;;18.33;9.27;;;10.70;99.90;;;;;;5095647;28;20116;-88
2023/10/27 04:07:31;;;;;;;25.17;21.63;;;10.70;99.90;;;;;;5078768;28;20502;-88
2023/10/27 04:09:56;;;;;;;15.85;7.57;;;10.70;99.90;;;;;;5086763;28;20038;-88
2023/10/27 04:12:22;;;;;;;18.77;7.55;;;10.70;99.90;;;;;;5095817;28;20082;-88
2023/10/27 04:14:48;;;;;;;15.73;7.10;;;10.70;99.90;;;;;;5078037;28;20043;-88
2023/10/27 04:17:14;;;;;;;18.40;7.10;;;10.70;99.90;;;;;;5095588;28;20043;-88
2023/10/27 04:19:43;;;;;;;16.17;7.75;;;10.60;99.90;;;;;;5095178;28;20038;-88
2023/10/27 04:22:08;;;;;;;19.15;8.13;;;10.60;99.90;;;;;;5095327;28;20043;-88
2023/10/27 04:24:34;;;;;;;17.30;8.35;;;10.60;99.90;;;;;;5097364;28;20046;-87
2023/10/27 04:27:00;;;;;;;17.30;7.75;;;10.60;99.90;;;;;;5095387;28;20039;-87
2023/10/27 04:29:25;;;;;;;19.52;7.88;;;10.60;99.90;;;;;;5078023;28;20040;-88
2023/10/27 04:31:51;;;;;;;18.60;8.45;;;10.60;99.90;;;;;;5078527;28;20476;-88
2023/10/27 04:34:17;;;;;;;18.80;8.43;;;10.60;99.90;;;;;;5078247;28;20120;-87
2023/10/27 04:36:43;;;;;;;16.75;7.93;;;10.60;99.90;;;;;;5095058;28;20491;-87
2023/10/27 04:39:09;;;;;;;17.20;7.25;;;10.60;99.90;;;;;;5078028;28;20035;-87
2023/10/27 04:41:34;;;;;;;19.05;8.77;;;10.60;99.90;;;;;;5077894;28;20088;-87
2023/10/27 04:44:00;;;;;;;24.83;20.25;;;10.60;99.90;;;;;;5078369;28;20084;-88
2023/10/27 04:46:26;;;;;;;16.23;8.05;;;10.70;99.90;;;;;;5078026;28;20074;-89
2023/10/27 04:48:52;;;;;;;17.77;7.20;;;10.70;99.90;;;;;;5077845;28;20040;-89
2023/10/27 04:51:17;;;;;;;24.20;20.30;;;10.60;99.90;;;;;;5077769;28;20135;-89
2023/10/27 04:53:43;;;;;;;25.02;20.73;;;10.70;99.90;;;;;;5077541;28;20071;-88
2023/10/27 04:56:09;;;;;;;19.20;8.02;;;10.80;99.90;;;;;;5077829;28;20035;-88
2023/10/27 04:58:34;;;;;;;16.98;8.10;;;10.70;99.90;;;;;;5086137;28;20043;-88
2023/10/27 05:01:00;;;;;;;15.30;7.40;;;10.70;99.90;;;;;;5077457;28;20627;-88
2023/10/27 05:03:27;;;;;;;15.50;7.35;;;10.60;99.90;;;;;;5077355;28;20514;-88
2023/10/27 05:05:52;;;;;;;19.83;7.18;;;10.60;99.90;;;;;;5094346;28;20516;-88
2023/10/27 05:08:18;;;;;;;18.17;9.07;;;10.60;99.90;;;;;;5077283;28;20043;-88
2023/10/27 05:10:44;;;;;;;16.73;6.97;;;10.60;99.90;;;;;;5094649;28;20027;-88
2023/10/27 05:13:09;;;;;;;18.67;7.85;;;10.60;99.90;;;;;;5094476;28;20486;-88
2023/10/27 05:15:37;;;;;;;19.80;9.07;;;10.60;99.90;;;;;;5077275;28;20038;-88
2023/10/27 05:18:05;;;;;;;18.00;7.88;;;10.50;99.90;;;;;;5094228;28;20072;-88
2023/10/27 05:20:38;;;;;;;26.70;22.35;;;10.50;99.90;;;;;;5093705;28;20043;-88
2023/10/27 05:23:03;;;;;;;17.75;9.38;;;10.60;99.90;;;;;;5077015;28;20039;-88
2023/10/27 05:25:29;;;;;;;22.15;10.57;;;10.60;99.90;;;;;;5076788;28;20038;-88
2023/10/27 05:27:55;;;;;;;26.73;23.15;;;10.60;99.90;;;;;;5077208;28;20044;-87
2023/10/27 05:30:20;;;;;;;17.17;9.82;;;10.60;99.90;;;;;;5093635;28;20081;-88
2023/10/27 05:32:46;;;;;;;17.63;8.55;;;10.60;99.90;;;;;;5077236;28;20088;-85
2023/10/27 05:35:11;;;;;;;15.77;7.40;;;10.50;99.90;;;;;;5077329;28;20038;-87
2023/10/27 05:37:37;;;;;;;19.27;8.75;;;10.50;99.90;;;;;;5094168;28;20047;-88
2023/10/27 05:40:03;;;;;;;20.40;8.60;;;10.50;99.90;;;;;;5093977;28;20074;-88
2023/10/27 05:42:30;;;;;;;16.42;7.45;;;10.50;99.90;;;;;;5095435;28;20527;-88
2023/10/27 05:44:56;;;;;;;20.75;9.13;;;10.50;99.90;;;;;;5077040;28;20048;-88
2023/10/27 05:47:21;;;;;;;17.65;7.78;;;10.50;99.90;;;;;;5076986;28;20035;-88
2023/10/27 05:49:47;;;;;;;17.65;8.10;;;10.50;99.90;;;;;;5095299;28;20031;-88
2023/10/27 05:52:14;;;;;;;20.88;7.82;;;10.40;99.90;;;;;;5080232;28;20028;-88
2023/10/27 05:54:40;;;;;;;17.65;9.55;;;10.40;99.90;;;;;;5093776;28;20063;-87
2023/10/27 05:57:07;;;;;;;19.85;8.52;;;10.40;99.90;;;;;;5093760;28;20426;-88
2023/10/27 05:59:32;;;;;;;20.90;10.25;;;10.40;99.90;;;;;;5093857;28;20507;-87
2023/10/27 06:01:58;;;;;;;18.88;8.23;;;10.40;99.90;;;;;;5111660;28;20039;-87
2023/10/27 06:04:24;;;;;;;24.75;21.27;;;10.40;99.90;;;;;;5093592;28;20043;-88
2023/10/27 06:06:50;;;;;;;20.63;8.52;;;10.50;99.90;;;;;;5093422;28;20084;-88
2023/10/27 06:09:16;;;;;;;18.35;9.85;;;10.50;99.90;;;;;;5076432;28;20046;-88
2023/10/27 06:11:41;;;;;;;19.60;8.55;;;10.40;99.90;;;;;;5093773;28;20063;-89
2023/10/27 06:14:07;;;;;;;16.65;8.25;;;10.40;99.90;;;;;;5076954;28;20067;-88
2023/10/27 06:16:32;;;;;;;16.92;7.97;;;10.40;99.90;;;;;;5094491;28;20169;-88
2023/10/27 06:18:59;;;;;;;17.25;8.70;;;10.40;99.90;;;;;;5078219;28;20456;-88
2023/10/27 06:21:25;;;;;;;21.48;9.25;;;10.40;99.90;;;;;;5076249;28;20082;-89
2023/10/27 06:23:51;;;;;;;17.17;7.63;;;10.40;99.90;;;;;;5076720;28;20043;-87
2023/10/27 06:26:16;;;;;;;19.55;8.32;;;10.40;99.90;;;;;;5076687;28;20036;-89
2023/10/27 06:28:42;;;;;;;19.00;8.77;;;10.40;99.90;;;;;;5079349;28;20071;-88
2023/10/27 06:31:09;;;;;;;18.75;8.65;;;10.40;99.90;;;;;;5076370;28;20039;-88
2023/10/27 06:33:36;;;;;;;18.08;7.65;;;10.40;99.90;;;;;;5091910;28;20042;-88
2023/10/27 06:36:03;;;;;;;19.05;8.60;;;10.40;99.90;;;;;;5080024;28;20100;-88
2023/10/27 06:38:29;;;;;;;21.05;9.23;;;10.40;99.90;;;;;;5080840;28;20048;-88
2023/10/27 06:40:55;;;;;;;17.23;8.18;;;10.40;99.90;;;;;;5096885;28;20550;-89
2023/10/27 06:43:21;;;;;;;18.27;8.30;;;10.40;99.90;;;;;;5088507;28;20046;-88
2023/10/27 06:45:46;;;;;;;17.88;8.25;;;10.40;99.90;;;;;;5102037;27;20093;-88
2023/10/27 06:48:12;;;;;;;17.83;8.45;;;10.40;99.90;;;;;;5107615;28;20036;-88
2023/10/27 06:50:37;;;;;;;18.60;8.38;;;10.40;99.90;;;;;;5097091;28;20035;-89
2023/10/27 06:53:03;;;;;;;16.80;8.68;;;10.40;99.90;;;;;;5086092;28;20447;-89
2023/10/27 06:55:28;;;;;;;21.65;8.35;;;10.40;99.90;;;;;;5080437;27;20047;-88
2023/10/27 06:57:54;;;;;;;19.15;9.38;;;10.40;99.90;;;;;;5090019;27;20080;-89
2023/10/27 07:00:20;;;;;;;20.33;9.52;;;10.40;99.90;;;;;;5105449;27;20039;-89
2023/10/27 07:02:45;;;;;;;19.35;9.25;;;10.40;99.90;;;;;;5090247;27;20047;-88
2023/10/27 07:05:13;;;;;;;21.13;10.52;;;10.30;99.90;;;;;;5088304;27;20043;-88
2023/10/27 07:07:40;;;;;;;18.23;7.75;;;10.40;99.90;;;;;;5087770;27;20043;-89
2023/10/27 07:10:06;;;;;;;18.67;10.05;;;10.40;99.90;;;;;;5103776;27;20093;-89
2023/10/27 07:12:32;;;;;;;18.40;7.93;;;10.40;99.90;;;;;;5089304;27;20031;-88
2023/10/27 07:14:57;;;;;;;18.15;7.90;;;10.40;99.90;;;;;;5105397;27;20054;-88
2023/10/27 07:17:23;;;;;;;18.05;7.75;;;10.40;99.90;;;;;;5105920;27;20031;-89
2023/10/27 07:19:49;;;;;;;16.40;7.57;;;10.40;99.90;;;;;;5090669;27;20402;-88
2023/10/27 07:22:16;;;;;;;15.70;7.25;;;10.40;99.90;;;;;;5089152;27;20035;-88
2023/10/27 07:24:41;;;;;;;19.15;8.95;;;10.40;99.90;;;;;;5091037;27;20039;-88
2023/10/27 07:27:07;;;;;;;19.50;9.02;;;10.40;99.90;;;;;;5085493;28;20046;-88
2023/10/27 07:29:33;;;;;;;18.42;9.35;;;10.40;99.90;;;;;;5104298;28;20053;-88
2023/10/27 07:31:58;;;;;;;17.77;8.00;;;10.40;99.90;;;;;;5078821;28;20514;-88
2023/10/27 07:34:24;;;;;;;28.10;24.20;;;10.50;99.90;;;;;;5102641;28;20066;-88
2023/10/27 07:36:50;;;;;;;18.23;8.60;;;10.50;99.90;;;;;;5096418;28;20047;-89
2023/10/27 07:39:16;;;;;;;22.75;9.68;;;10.60;99.90;;;;;;5104955;28;20506;-89
2023/10/27 07:41:42;;;;;;;19.58;9.10;;;10.50;99.90;;;;;;5079884;28;20140;-88
2023/10/27 07:44:07;;;;;;;20.20;10.35;;;10.50;99.90;;;;;;5083551;28;20177;-89
2023/10/27 07:46:33;;;;;;;23.88;8.57;;;10.50;99.90;;;;;;5087617;28;20123;-89
2023/10/27 07:48:59;;;;;;;22.50;10.40;;;10.50;99.90;;;;;;5100340;28;20040;-89
2023/10/27 07:51:24;;;;;;;22.33;10.25;;;10.60;99.90;;;;;;5079161;28;20067;-89
2023/10/27 07:53:50;;;;;;;18.77;8.20;;;10.60;99.90;;;;;;5079215;28;20035;-89
2023/10/27 07:56:18;;;;;;;20.75;9.10;;;10.60;99.90;;;;;;5095903;28;20092;-88
2023/10/27 07:58:44;;;;;;;20.98;10.30;;;10.60;99.90;;;;;;5104207;28;20071;-89
2023/10/27 08:01:09;;;;;;;19.50;8.43;;;10.60;99.90;;;;;;5078587;28;20050;-88
2023/10/27 08:03:35;;;;;;;29.85;8.55;;;10.60;99.90;;;;;;5096205;28;20059;-89
2023/10/27 08:06:04;;;;;;;17.35;9.05;;;10.60;99.90;;;;;;5078995;28;20035;-89
2023/10/27 08:08:30;;;;;;;16.58;7.78;;;10.60;99.90;;;;;;5085913;28;20060;-89
2023/10/27 08:10:56;;;;;;;18.13;8.90;;;10.60;99.90;;;;;;5078678;28;20067;-88
2023/10/27 08:13:22;;;;;;;20.20;9.48;;;10.70;99.90;;;;;;5078823;28;20032;-89
2023/10/27 08:15:48;;;;;;;21.17;9.05;;;10.60;99.90;;;;;;5095228;28;20502;-89
2023/10/27 08:18:13;;;;;;;17.63;8.00;;;10.70;99.90;;;;;;5104031;28;20138;-88
2023/10/27 08:20:40;;;;;;;19.70;8.57;;;10.70;99.90;;;;;;5078374;28;20046;-88
2023/10/27 08:23:05;;;;;;;18.60;8.95;;;10.70;99.90;;;;;;5086709;28;20044;-88
2023/10/27 08:25:31;;;;;;;17.23;8.60;;;10.70;99.90;;;;;;5078273;28;20039;-88
2023/10/27 08:27:57;;;;;;;15.77;7.60;;;10.70;99.90;;;;;;5078248;28;20031;-90
2023/10/27 08:30:22;;;;;;;25.55;19.88;;;10.70;99.90;;;;;;5101224;28;20031;-88
2023/10/27 08:32:48;;;;;;;18.15;8.73;;;10.80;99.90;;;;;;5094481;28;20494;-88
2023/10/27 08:35:14;;;;;;;18.17;8.90;;;10.80;99.90;;;;;;5078199;28;20048;-87
2023/10/27 08:37:40;;;;;;;16.33;7.43;;;10.80;99.90;;;;;;5095247;28;20394;-88
2023/10/27 08:40:17;;;;;;;17.52;8.45;;;10.80;99.90;;;;;;5103611;28;20031;-88
2023/10/27 08:42:44;;;;;;;20.23;8.13;;;10.80;99.90;;;;;;5096138;28;20506;-88
2023/10/27 08:45:10;;;;;;;21.00;8.93;;;10.80;99.90;;;;;;5104114;28;20039;-88
2023/10/27 08:47:36;;;;;;;19.20;8.05;;;10.80;99.90;;;;;;5084016;28;20028;-88
2023/10/27 08:50:04;;;;;;;16.48;7.53;;;10.80;99.90;;;;;;5077739;28;20410;-88
2023/10/27 08:52:34;;;;;;;17.80;9.23;;;10.80;99.90;;;;;;5103239;28;20040;-88
2023/10/27 08:55:07;;;;;;;17.73;7.20;;;10.80;99.90;;;;;;5098306;27;20031;-88
2023/10/27 08:57:33;;;;;;;23.00;19.40;;;10.80;99.90;;;;;;5077533;28;20031;-88
2023/10/27 08:59:59;;;;;;;18.58;8.95;;;10.90;99.90;;;;;;5080908;28;20039;-88
2023/10/27 09:02:32;;;;;;;18.63;9.20;;;10.90;99.90;;;;;;5093614;27;20042;-88
2023/10/27 09:05:06;;;;;;;19.65;6.95;;;10.90;99.90;;;;;;5091704;28;20036;-88
2023/10/27 09:07:33;;;;;;;18.20;8.30;;;10.90;99.90;;;;;;5096612;27;20042;-88
2023/10/27 09:09:59;;;;;;;21.67;9.38;;;10.90;99.90;;;;;;5097737;28;20394;-88
2023/10/27 09:12:30;;;;;;;20.92;10.20;;;10.90;99.90;;;;;;5093308;28;20510;-88
2023/10/27 09:15:07;;;;;;;16.20;7.93;;;10.90;99.90;;;;;;5092804;28;20085;-88
2023/10/27 09:17:54;;;;;;;18.52;8.45;;;10.90;99.90;;;;;;5095902;28;20043;-89
2023/10/27 09:20:23;;;;;;;16.58;7.50;;;10.90;99.90;;;;;;5093770;28;20122;-88
2023/10/27 09:23:04;;;;;;;18.33;8.02;;;10.90;99.90;;;;;;5078628;28;20047;-88
2023/10/27 09:25:31;;;;;;;16.13;7.55;;;11.00;99.90;;;;;;5076529;28;20039;-88
2023/10/27 09:27:58;;;;;;;15.93;8.18;;;11.00;99.90;;;;;;5076999;28;20040;-88
2023/10/27 09:30:38;;;;;;;17.33;8.38;;;11.00;99.90;;;;;;5076917;28;20050;-88
2023/10/27 09:33:15;;;;;;;14.82;7.40;;;11.00;99.90;;;;;;5085360;28;20486;-89
2023/10/27 09:35:41;;;;;;;16.50;7.57;;;11.00;99.90;;;;;;5077143;28;20067;-89
2023/10/27 09:38:08;;;;;;;16.58;8.00;;;11.00;99.90;;;;;;5081100;28;20124;-88
2023/10/27 09:40:40;;;;;;;18.85;9.45;;;11.00;99.90;;;;;;5102106;28;20047;-88
2023/10/27 09:43:18;;;;;;;15.70;7.15;;;11.00;99.90;;;;;;5101935;28;20043;-88
2023/10/27 09:46:06;;;;;;;19.48;7.95;;;11.10;99.90;;;;;;5093968;28;20035;-88
2023/10/27 09:48:35;;;;;;;13.65;6.45;;;11.10;99.90;;;;;;5076786;28;20050;-89
2023/10/27 09:51:04;;;;;;;17.55;6.85;;;11.10;99.90;;;;;;5076834;28;20035;-89
2023/10/27 09:53:30;;;;;;;14.70;6.68;;;11.10;99.90;;;;;;5076509;28;20089;-89
2023/10/27 09:56:00;;;;;;;16.52;7.95;;;11.10;99.90;;;;;;5094213;28;20042;-88
2023/10/27 09:58:29;;;;;;;18.00;8.50;;;11.00;99.90;;;;;;5095129;28;20047;-89
2023/10/27 10:00:56;;;;;;;19.25;8.27;;;11.10;99.90;;;;;;5104873;28;20064;-88
2023/10/27 10:03:26;;;;;;;16.83;7.78;;;11.10;99.90;;;;;;5083298;27;20057;-88
2023/10/27 10:06:11;;;;;;;14.50;7.25;;;11.10;99.90;;;;;;5088387;28;20038;-88
2023/10/27 10:08:38;;;;;;;16.50;7.80;;;11.10;99.90;;;;;;5103887;28;20100;-88
2023/10/27 10:11:19;;;;;;;16.63;7.70;;;11.10;99.90;;;;;;5087562;28;20066;-87
2023/10/27 10:13:44;;;;;;;16.88;7.93;;;11.10;99.90;;;;;;5107662;27;20124;-88
2023/10/27 10:16:11;;;;;;;17.92;8.18;;;11.20;99.90;;;;;;5110115;27;20163;-88
2023/10/27 10:18:37;;;;;;;18.05;8.32;;;11.20;99.90;;;;;;5076972;27;20035;-88
2023/10/27 10:21:03;;;;;;;18.30;8.57;;;11.20;99.90;;;;;;5102190;27;20040;-88
2023/10/27 10:23:37;;;;;;;21.45;9.77;;;11.20;99.90;;;;;;5083909;28;20031;-87
2023/10/27 10:26:04;;;;;;;19.65;9.20;;;11.20;99.90;;;;;;5101960;27;20494;-87
2023/10/27 10:28:33;;;;;;;18.65;8.68;;;11.20;99.90;;;;;;5101823;27;20032;-88
2023/10/27 10:31:10;;;;;;;21.17;9.30;;;11.20;99.90;;;;;;5101846;27;20148;-87
2023/10/27 10:33:37;;;;;;;17.85;9.07;;;11.20;99.90;;;;;;5099688;28;20042;-88
2023/10/27 10:36:18;;;;;;;17.60;8.82;;;11.20;99.90;;;;;;5097041;28;20040;-88
2023/10/27 10:38:50;;;;;;;17.52;8.85;;;11.30;99.90;;;;;;5080117;28;20036;-88
2023/10/27 10:41:18;;;;;;;16.88;8.02;;;11.30;99.90;;;;;;5096797;28;20122;-88
2023/10/27 10:43:44;;;;;;;17.60;7.78;;;11.30;99.90;;;;;;5079351;28;20031;-88
2023/10/27 10:46:11;;;;;;;20.08;8.48;;;11.30;99.90;;;;;;5080311;28;20116;-88
2023/10/27 10:48:45;;;;;;;16.63;8.68;;;11.30;99.90;;;;;;5096659;28;20093;-88
2023/10/27 10:51:36;;;;;;;20.55;9.50;;;11.30;99.90;;;;;;5094517;28;20118;-88
2023/10/27 10:54:02;;;;;;;16.20;7.82;;;11.30;99.90;;;;;;5105598;28;20048;-89
2023/10/27 10:56:28;;;;;;;17.95;8.80;;;11.40;99.90;;;;;;5079760;28;20116;-88
2023/10/27 10:58:54;;;;;;;19.13;9.23;;;11.40;99.90;;;;;;5096595;28;20562;-89
2023/10/27 11:01:21;;;;;;;17.23;7.88;;;11.40;99.90;;;;;;5079402;28;20648;-88
2023/10/27 11:03:52;;;;;;;17.13;8.23;;;11.40;99.90;;;;;;5097009;28;20046;-88
2023/10/27 11:06:22;;;;;;;23.33;20.20;;;11.40;99.90;;;;;;5096671;28;20046;-88
2023/10/27 11:08:49;;;;;;;15.85;8.40;;;11.50;99.90;;;;;;5096435;28;20044;-88
2023/10/27 11:11:17;;;;;;;18.23;7.47;;;11.50;99.90;;;;;;5096782;28;20047;-88
2023/10/27 11:13:45;;;;;;;18.17;8.75;;;11.50;99.90;;;;;;5100109;28;20078;-88
2023/10/27 11:16:23;;;;;;;17.00;8.13;;;11.50;99.90;;;;;;5088233;28;20043;-88
2023/10/27 11:18:59;;;;;;;19.08;9.60;;;11.50;99.90;;;;;;5095632;28;20139;-88
2023/10/27 11:21:27;;;;;;;16.83;7.55;;;11.50;99.90;;;;;;5096412;28;20071;-88
2023/10/27 11:23:53;;;;;;;12.75;6.75;;;11.50;99.90;;;;;;5095239;28;20045;-88
2023/10/27 11:26:20;;;;;;;16.35;8.38;;;11.50;99.90;;;;;;5079938;28;20043;-88
2023/10/27 11:28:47;;;;;;;19.55;9.13;;;11.50;99.90;;;;;;5096101;28;20032;-88
2023/10/27 11:31:22;;;;;;;16.45;8.40;;;11.50;99.90;;;;;;5104917;28;20039;-88
2023/10/27 11:34:00;;;;;;;18.40;9.20;;;11.50;99.90;;;;;;5079987;28;20069;-88
2023/10/27 11:36:28;;;;;;;17.85;8.25;;;11.50;99.90;;;;;;5079195;28;20035;-88
2023/10/27 11:38:54;;;;;;;14.68;7.03;;;11.50;99.90;;;;;;5081655;28;20075;-88
2023/10/27 11:41:20;;;;;;;18.70;8.60;;;11.50;99.90;;;;;;5099003;28;20075;-88
2023/10/27 11:43:46;;;;;;;14.43;7.00;;;11.50;99.90;;;;;;5078834;28;20040;-88
2023/10/27 11:46:16;;;;;;;16.63;9.20;;;11.60;99.90;;;;;;5084007;28;20407;-88
2023/10/27 11:48:43;;;;;;;15.85;9.02;;;11.60;99.90;;;;;;5070485;28;20036;-87
2023/10/27 11:51:09;;;;;;;15.77;7.95;;;11.60;99.90;;;;;;5083447;28;20039;-87
2023/10/27 11:53:39;;;;;;;19.15;9.48;;;11.60;99.90;;;;;;5078684;28;20035;-87
2023/10/27 11:56:05;;;;;;;22.60;19.40;;;11.60;99.90;;;;;;5075533;28;20084;-87
2023/10/27 11:58:31;;;;;;;13.98;7.55;;;11.60;99.90;;;;;;5095172;28;20031;-88
2023/10/27 12:00:56;;;;;;;16.52;8.20;;;11.70;99.90;;;;;;5078872;28;20035;-87
2023/10/27 12:03:22;;;;;;;16.90;6.65;;;11.60;99.90;;;;;;5078763;28;20090;-88
2023/10/27 12:05:48;;;;;;;14.55;6.78;;;11.60;99.90;;;;;;5078456;28;20035;-87
2023/10/27 12:08:14;;;;;;;14.68;8.25;;;11.60;99.90;;;;;;5094989;28;20040;-87
2023/10/27 12:10:39;;;;;;;14.60;6.88;;;11.60;99.90;;;;;;5078201;28;20111;-87
2023/10/27 12:13:06;;;;;;;18.45;8.48;;;11.60;99.90;;;;;;5078224;28;20181;-87
2023/10/27 12:15:36;;;;;;;17.73;6.43;;;11.60;99.90;;;;;;5078416;28;20036;-87
2023/10/27 12:18:06;;;;;;;14.90;7.03;;;11.50;99.90;;;;;;5095508;28;20039;-88
2023/10/27 12:20:33;;;;;;;12.95;5.93;;;11.50;99.90;;;;;;5095563;28;20114;-87
2023/10/27 12:22:59;;;;;;;15.60;6.13;;;11.50;99.90;;;;;;5087106;28;20074;-88
2023/10/27 12:25:24;;;;;;;15.07;6.28;;;11.60;99.90;;;;;;5113360;28;20132;-88
2023/10/27 12:27:50;;;;;;;14.60;6.82;;;11.50;99.90;;;;;;5094799;28;20035;-88
2023/10/27 12:30:16;;;;;;;15.48;7.25;;;11.60;99.90;;;;;;5078147;28;20585;-88
2023/10/27 12:32:42;;;;;;;15.52;7.78;;;11.60;99.90;;;;;;5095465;28;20036;-88
2023/10/27 12:35:08;;;;;;;15.10;7.95;;;11.60;99.90;;;;;;5103223;28;20371;-88